Time;durP1;ratioP1;P1;durP2;ratioP2;P2;SDS_P1;SDS_P2;PMS_P1;PMS_P2;Temp;Humidity;BMP_temperature;BMP_pressure;BME280_temperature;BME280_humidity;BME280_pressure;Samples;Min_cycle;Max_cycle;Signal;HPM_P1;HPM_P2
2021/10/11 00:01:23;;;;;;;28.20;23.00;;;;;;;;;;5058696;28;20442;-88
2021/10/11 00:03:49;;;;;;;33.15;25.63;;;;;;;;;;5064085;28;20431;-88
2021/10/11 00:06:15;;;;;;;32.27;23.63;;;;;;;;;;5059195;28;20188;-88
2021/10/11 00:08:41;;;;;;;30.50;24.43;;;;;;;;;;5072330;28;20483;-88
2021/10/11 00:11:07;;;;;;;31.30;24.47;;;;;;;;;;5062508;28;20433;-88
2021/10/11 00:13:33;;;;;;;29.70;24.63;;;;;;;;;;5058587;28;20780;-88
2021/10/11 00:15:58;;;;;;;29.00;22.63;;;;;;;;;;5060704;28;20181;-87
2021/10/11 00:18:25;;;;;;;30.40;24.00;;;;;;;;;;5058144;28;20204;-87
2021/10/11 00:20:51;;;;;;;27.10;22.88;;;;;;;;;;5073512;28;20527;-89
2021/10/11 00:23:17;;;;;;;30.52;23.90;;;;;;;;;;5056649;28;20189;-88
2021/10/11 00:25:42;;;;;;;31.60;22.47;;;;;;;;;;5063203;28;20181;-87
2021/10/11 00:28:09;;;;;;;28.90;22.67;;;;;;;;;;5056441;28;20427;-88
2021/10/11 00:30:35;;;;;;;29.08;23.38;;;;;;;;;;5059131;28;20495;-88
2021/10/11 00:33:01;;;;;;;33.00;23.80;;;;;;;;;;5061206;28;20185;-90
2021/10/11 00:35:27;;;;;;;31.15;23.45;;;;;;;;;;5059601;28;20196;-88
2021/10/11 00:37:53;;;;;;;29.75;22.63;;;;;;;;;;5058096;28;20177;-86
2021/10/11 00:40:19;;;;;;;30.77;22.42;;;;;;;;;;5063054;28;20173;-89
2021/10/11 00:42:45;;;;;;;33.20;25.27;;;;;;;;;;5053891;28;20181;-89
2021/10/11 00:45:12;;;;;;;31.98;24.40;;;;;;;;;;5058051;28;20258;-88
2021/10/11 00:47:38;;;;;;;30.33;23.77;;;;;;;;;;5072864;28;20177;-88
2021/10/11 00:50:04;;;;;;;29.50;22.00;;;;;;;;;;5078192;28;20201;-89
2021/10/11 00:52:30;;;;;;;29.92;22.92;;;;;;;;;;5059587;28;20165;-88
2021/10/11 00:54:56;;;;;;;30.38;22.48;;;;;;;;;;5059109;28;20185;-88
2021/10/11 00:57:22;;;;;;;32.65;25.35;;;;;;;;;;5058801;28;20648;-88
2021/10/11 00:59:48;;;;;;;28.27;22.47;;;;;;;;;;5056515;28;20268;-86
2021/10/11 01:02:14;;;;;;;28.17;21.83;;;;;;;;;;5054635;28;20447;-87
2021/10/11 01:04:40;;;;;;;29.45;21.33;;;;;;;;;;5061946;28;20416;-88
2021/10/11 01:07:07;;;;;;;30.92;22.63;;;;;;;;;;5059423;28;20192;-88
2021/10/11 01:09:33;;;;;;;28.52;22.83;;;;;;;;;;5056318;28;20201;-88
2021/10/11 01:11:59;;;;;;;28.77;21.85;;;;;;;;;;5058776;28;20189;-87
2021/10/11 01:14:26;;;;;;;29.05;22.13;;;;;;;;;;5071116;28;20178;-86
2021/10/11 01:16:52;;;;;;;29.30;21.75;;;;;;;;;;5058078;28;20185;-89
2021/10/11 01:19:18;;;;;;;34.65;24.73;;;;;;;;;;5056516;28;20199;-88
2021/10/11 01:21:44;;;;;;;35.50;24.60;;;;;;;;;;5056912;28;20181;-86
2021/10/11 01:24:10;;;;;;;28.10;21.75;;;;;;;;;;5059311;28;20188;-87
2021/10/11 01:26:37;;;;;;;32.83;24.70;;;;;;;;;;5072600;28;20251;-88
2021/10/11 01:29:03;;;;;;;35.25;25.80;;;;;;;;;;5056472;28;20201;-87
2021/10/11 01:31:29;;;;;;;35.42;25.42;;;;;;;;;;5057616;28;20169;-86
2021/10/11 01:33:55;;;;;;;34.85;25.15;;;;;;;;;;5059074;28;20176;-88
2021/10/11 01:36:21;;;;;;;35.77;25.80;;;;;;;;;;5055440;28;20559;-87
2021/10/11 01:38:47;;;;;;;34.92;25.00;;;;;;;;;;5058297;28;20428;-87
2021/10/11 01:41:13;;;;;;;30.25;24.10;;;;;;;;;;5060163;28;20200;-87
2021/10/11 01:43:39;;;;;;;38.50;25.58;;;;;;;;;;5061663;28;20201;-87
2021/10/11 01:46:05;;;;;;;38.58;26.73;;;;;;;;;;5060277;28;20185;-86
2021/10/11 01:48:31;;;;;;;36.22;27.45;;;;;;;;;;5055732;28;20205;-86
2021/10/11 01:50:57;;;;;;;36.63;25.90;;;;;;;;;;5055828;28;20231;-86
2021/10/11 01:53:23;;;;;;;38.07;26.67;;;;;;;;;;5055367;28;20423;-88
2021/10/11 01:55:49;;;;;;;38.47;27.57;;;;;;;;;;5057152;28;20458;-89
2021/10/11 01:58:15;;;;;;;35.33;24.75;;;;;;;;;;5054805;28;20508;-89
2021/10/11 02:00:41;;;;;;;39.15;25.33;;;;;;;;;;5053342;28;20185;-88
2021/10/11 02:03:07;;;;;;;36.17;26.55;;;;;;;;;;5057829;28;20185;-88
2021/10/11 02:05:34;;;;;;;34.20;25.83;;;;;;;;;;5071187;28;20201;-87
2021/10/11 02:08:00;;;;;;;37.97;25.40;;;;;;;;;;5055441;28;20177;-87
2021/10/11 02:10:26;;;;;;;34.78;26.17;;;;;;;;;;5056765;28;20197;-87
2021/10/11 02:12:52;;;;;;;38.87;26.70;;;;;;;;;;5061260;28;20195;-88
2021/10/11 02:15:18;;;;;;;37.35;27.77;;;;;;;;;;5058624;28;20435;-88
2021/10/11 02:17:44;;;;;;;38.33;26.48;;;;;;;;;;5058804;28;20177;-88
2021/10/11 02:20:11;;;;;;;36.90;26.20;;;;;;;;;;5055067;28;20173;-88
2021/10/11 02:22:37;;;;;;;36.03;25.40;;;;;;;;;;5061103;28;20411;-88
2021/10/11 02:25:03;;;;;;;37.47;25.83;;;;;;;;;;5058376;28;20189;-88
2021/10/11 02:27:29;;;;;;;43.25;28.05;;;;;;;;;;5057092;28;20178;-88
2021/10/11 02:29:55;;;;;;;37.38;27.58;;;;;;;;;;5059961;28;20270;-88
2021/10/11 02:32:21;;;;;;;38.35;25.42;;;;;;;;;;5075238;28;20205;-88
2021/10/11 02:34:47;;;;;;;37.03;26.52;;;;;;;;;;5065789;28;20177;-88
2021/10/11 02:37:13;;;;;;;34.35;26.55;;;;;;;;;;5060996;28;20189;-88
2021/10/11 02:39:39;;;;;;;40.00;25.10;;;;;;;;;;5061199;28;20212;-88
2021/10/11 02:42:05;;;;;;;32.05;24.42;;;;;;;;;;5063026;28;20189;-88
2021/10/11 02:44:31;;;;;;;35.83;26.55;;;;;;;;;;5057443;28;20217;-88
2021/10/11 02:46:57;;;;;;;37.03;27.07;;;;;;;;;;5065307;28;20181;-88
2021/10/11 02:49:23;;;;;;;36.90;27.30;;;;;;;;;;5064279;28;20517;-88
2021/10/11 02:51:49;;;;;;;34.17;26.40;;;;;;;;;;5061455;28;20432;-89
2021/10/11 02:54:17;;;;;;;36.70;26.55;;;;;;;;;;5062567;28;20442;-88
2021/10/11 02:56:44;;;;;;;37.75;26.10;;;;;;;;;;5062117;28;20243;-87
2021/10/11 02:59:10;;;;;;;35.55;26.35;;;;;;;;;;5058618;28;20204;-87
2021/10/11 03:01:36;;;;;;;37.45;28.23;;;;;;;;;;5060149;28;20642;-88
2021/10/11 03:04:02;;;;;;;34.97;26.65;;;;;;;;;;5057515;28;20199;-88
2021/10/11 03:06:28;;;;;;;35.83;26.17;;;;;;;;;;5059184;28;20265;-88
2021/10/11 03:08:54;;;;;;;38.60;25.92;;;;;;;;;;5062335;28;20254;-88
2021/10/11 03:11:20;;;;;;;36.37;27.00;;;;;;;;;;5058395;28;20181;-89
2021/10/11 03:13:46;;;;;;;37.13;25.10;;;;;;;;;;5065533;28;20913;-88
2021/10/11 03:16:12;;;;;;;31.30;25.30;;;;;;;;;;5057816;28;20471;-88
2021/10/11 03:18:38;;;;;;;37.35;27.27;;;;;;;;;;5057014;28;20433;-88
2021/10/11 03:21:04;;;;;;;32.85;24.65;;;;;;;;;;5060465;28;20192;-88
2021/10/11 03:23:30;;;;;;;36.10;26.08;;;;;;;;;;5065095;28;20201;-88
2021/10/11 03:25:56;;;;;;;39.67;26.55;;;;;;;;;;5060620;28;20650;-88
2021/10/11 03:28:22;;;;;;;34.30;24.90;;;;;;;;;;5058834;28;20184;-89
2021/10/11 03:30:49;;;;;;;37.15;26.30;;;;;;;;;;5060704;28;20468;-88
2021/10/11 03:33:15;;;;;;;30.40;24.30;;;;;;;;;;5058775;28;20190;-88
2021/10/11 03:35:41;;;;;;;30.45;23.83;;;;;;;;;;5060423;28;20189;-88
2021/10/11 03:38:07;;;;;;;33.45;23.65;;;;;;;;;;5058402;28;20187;-87
2021/10/11 03:40:33;;;;;;;28.80;24.23;;;;;;;;;;5062622;28;20197;-88
2021/10/11 03:42:59;;;;;;;30.58;24.75;;;;;;;;;;5061139;28;20436;-88
2021/10/11 03:45:25;;;;;;;35.47;25.42;;;;;;;;;;5058802;28;20190;-86
2021/10/11 03:47:51;;;;;;;30.65;23.33;;;;;;;;;;5062690;28;20196;-88
2021/10/11 03:50:17;;;;;;;32.00;24.73;;;;;;;;;;5057280;28;20213;-88
2021/10/11 03:52:43;;;;;;;30.73;26.37;;;;;;;;;;5065476;28;20445;-89
2021/10/11 03:55:09;;;;;;;32.47;25.10;;;;;;;;;;5055390;28;20431;-87
2021/10/11 03:57:35;;;;;;;31.05;24.30;;;;;;;;;;5057673;28;20429;-87
2021/10/11 04:00:01;;;;;;;31.73;25.02;;;;;;;;;;5061352;28;20193;-89
2021/10/11 04:02:27;;;;;;;33.58;25.58;;;;;;;;;;5057825;28;20192;-88
2021/10/11 04:04:53;;;;;;;35.45;23.60;;;;;;;;;;5060455;28;20223;-87
2021/10/11 04:07:20;;;;;;;30.17;22.35;;;;;;;;;;5075330;28;20719;-88
2021/10/11 04:09:47;;;;;;;29.10;23.50;;;;;;;;;;5056638;28;20261;-88
2021/10/11 04:12:28;;;;;;;31.25;25.02;;;;;;;;;;5058383;28;20189;-87
2021/10/11 04:14:54;;;;;;;32.95;23.67;;;;;;;;;;5061360;28;20173;-88
2021/10/11 04:17:20;;;;;;;33.40;23.20;;;;;;;;;;5057652;28;20192;-87
2021/10/11 04:19:46;;;;;;;33.67;23.88;;;;;;;;;;5059762;28;20443;-88
2021/10/11 04:22:12;;;;;;;29.40;21.90;;;;;;;;;;5061555;28;20209;-88
2021/10/11 04:24:38;;;;;;;30.00;23.20;;;;;;;;;;5057419;28;20436;-88
2021/10/11 04:27:04;;;;;;;31.98;24.00;;;;;;;;;;5060537;28;20195;-88
2021/10/11 04:29:30;;;;;;;29.00;22.83;;;;;;;;;;5072621;28;20229;-88
2021/10/11 04:31:56;;;;;;;28.77;24.50;;;;;;;;;;5059614;28;20197;-87
2021/10/11 04:34:22;;;;;;;29.43;22.67;;;;;;;;;;5057903;28;20395;-89
2021/10/11 04:36:48;;;;;;;31.90;24.30;;;;;;;;;;5056592;28;20526;-89
2021/10/11 04:39:14;;;;;;;28.20;22.73;;;;;;;;;;5057962;28;20594;-88
2021/10/11 04:41:40;;;;;;;30.45;23.45;;;;;;;;;;5065058;28;20215;-88
2021/10/11 04:44:06;;;;;;;30.00;22.77;;;;;;;;;;5057804;28;20221;-87
2021/10/11 04:46:32;;;;;;;36.47;24.98;;;;;;;;;;5057821;28;20433;-87
2021/10/11 04:48:58;;;;;;;32.95;23.63;;;;;;;;;;5060227;28;20180;-89
2021/10/11 04:51:24;;;;;;;32.10;21.88;;;;;;;;;;5056820;28;20261;-88
2021/10/11 04:53:50;;;;;;;31.48;22.25;;;;;;;;;;5059144;28;20188;-89
2021/10/11 04:56:16;;;;;;;34.50;21.55;;;;;;;;;;5057077;28;20200;-89
2021/10/11 04:58:42;;;;;;;35.10;24.23;;;;;;;;;;5063192;28;20173;-88
2021/10/11 05:01:08;;;;;;;32.80;23.70;;;;;;;;;;5054586;28;20242;-89
2021/10/11 05:03:34;;;;;;;34.47;20.77;;;;;;;;;;5056390;28;20914;-89
2021/10/11 05:06:00;;;;;;;28.37;19.13;;;;;;;;;;5062762;28;20189;-88
2021/10/11 05:08:26;;;;;;;23.93;17.77;;;;;;;;;;5061858;28;20482;-88
2021/10/11 05:10:52;;;;;;;26.07;18.53;;;;;;;;;;5059877;28;20459;-89
2021/10/11 05:13:18;;;;;;;22.92;15.45;;;;;;;;;;5073168;28;20454;-88
2021/10/11 05:15:44;;;;;;;20.67;15.45;;;;;;;;;;5057842;28;20188;-87
2021/10/11 05:18:10;;;;;;;19.70;15.13;;;;;;;;;;5058362;28;20181;-88
2021/10/11 05:20:37;;;;;;;19.30;13.13;;;;;;;;;;5058828;28;20185;-89
2021/10/11 05:23:04;;;;;;;17.30;11.18;;;;;;;;;;5063123;28;20473;-88
2021/10/11 05:25:30;;;;;;;27.08;14.23;;;;;;;;;;5057517;28;20184;-88
2021/10/11 05:27:56;;;;;;;18.90;13.50;;;;;;;;;;5058710;28;20264;-88
2021/10/11 05:30:22;;;;;;;20.53;14.37;;;;;;;;;;5057345;28;20269;-89
2021/10/11 05:32:48;;;;;;;17.65;12.73;;;;;;;;;;5058364;28;20509;-88
2021/10/11 05:35:14;;;;;;;20.63;13.20;;;;;;;;;;5055083;28;20182;-88
2021/10/11 05:37:40;;;;;;;17.95;12.60;;;;;;;;;;5062121;28;20183;-89
2021/10/11 05:40:07;;;;;;;22.20;15.07;;;;;;;;;;5059107;28;20185;-87
2021/10/11 05:42:33;;;;;;;20.27;14.18;;;;;;;;;;5057034;28;20439;-88
2021/10/11 05:44:59;;;;;;;17.57;13.00;;;;;;;;;;5060230;28;20224;-88
2021/10/11 05:47:25;;;;;;;13.60;11.52;;;;;;;;;;5056594;28;20439;-88
2021/10/11 05:49:51;;;;;;;16.03;11.87;;;;;;;;;;5059138;28;20216;-89
2021/10/11 05:52:17;;;;;;;12.60;10.73;;;;;;;;;;5054768;28;20522;-89
2021/10/11 05:54:43;;;;;;;17.40;11.83;;;;;;;;;;5057988;28;20193;-88
2021/10/11 05:57:09;;;;;;;19.53;14.00;;;;;;;;;;5047491;28;20473;-88
2021/10/11 05:59:35;;;;;;;20.20;13.88;;;;;;;;;;5072438;28;20429;-88
2021/10/11 06:02:01;;;;;;;15.50;12.70;;;;;;;;;;5056204;28;20230;-88
2021/10/11 06:04:27;;;;;;;13.83;10.73;;;;;;;;;;5057591;28;20172;-88
2021/10/11 06:06:53;;;;;;;14.00;11.35;;;;;;;;;;5054551;28;20448;-88
2021/10/11 06:09:19;;;;;;;14.40;11.10;;;;;;;;;;5056888;28;20269;-89
2021/10/11 06:11:46;;;;;;;13.60;10.18;;;;;;;;;;5058049;28;20440;-90
2021/10/11 06:14:12;;;;;;;13.45;9.55;;;;;;;;;;5055123;28;20177;-89
2021/10/11 06:16:38;;;;;;;15.20;10.77;;;;;;;;;;5057142;28;20169;-89
2021/10/11 06:19:04;;;;;;;17.53;11.47;;;;;;;;;;5054515;28;20264;-87
2021/10/11 06:21:30;;;;;;;13.60;10.52;;;;;;;;;;5055678;28;20428;-88
2021/10/11 06:23:57;;;;;;;14.90;11.32;;;;;;;;;;5059687;28;20685;-88
2021/10/11 06:26:23;;;;;;;13.93;11.10;;;;;;;;;;5059940;28;20211;-90
2021/10/11 06:28:49;;;;;;;14.02;10.10;;;;;;;;;;5059299;28;20182;-88
2021/10/11 06:31:15;;;;;;;17.60;11.20;;;;;;;;;;5057723;28;20178;-86
2021/10/11 06:33:41;;;;;;;14.33;10.40;;;;;;;;;;5057266;28;20432;-87
2021/10/11 06:36:07;;;;;;;11.90;9.00;;;;;;;;;;5053976;28;20444;-88
2021/10/11 06:38:35;;;;;;;15.30;9.40;;;;;;;;;;5059109;28;20440;-87
2021/10/11 06:41:01;;;;;;;14.82;13.25;;;;;;;;;;5055003;28;20169;-87
2021/10/11 06:43:27;;;;;;;15.07;10.67;;;;;;;;;;5056637;28;20236;-87
2021/10/11 06:45:53;;;;;;;12.25;10.85;;;;;;;;;;5058283;28;20454;-86
2021/10/11 06:48:19;;;;;;;13.60;10.67;;;;;;;;;;5056802;28;20181;-89
2021/10/11 06:50:45;;;;;;;12.65;9.80;;;;;;;;;;5057857;28;20602;-88
2021/10/11 06:53:11;;;;;;;10.52;9.43;;;;;;;;;;5060497;28;20802;-87
2021/10/11 06:55:37;;;;;;;9.57;8.00;;;;;;;;;;5054000;28;20184;-90
2021/10/11 06:58:03;;;;;;;12.18;8.88;;;;;;;;;;5057741;28;20168;-92
2021/10/11 07:00:29;;;;;;;15.70;11.90;;;;;;;;;;5057454;28;20243;-92
2021/10/11 07:02:55;;;;;;;15.32;10.60;;;;;;;;;;5053954;28;20937;-90
2021/10/11 07:05:21;;;;;;;11.17;8.37;;;;;;;;;;5074407;28;20188;-90
2021/10/11 07:07:47;;;;;;;10.93;8.80;;;;;;;;;;5055672;28;20419;-90
2021/10/11 07:10:14;;;;;;;10.02;7.80;;;;;;;;;;5054850;28;20263;-90
2021/10/11 07:12:40;;;;;;;13.60;9.10;;;;;;;;;;5056031;28;20247;-89
2021/10/11 07:15:07;;;;;;;16.90;7.85;;;;;;;;;;5057813;28;20178;-89
2021/10/11 07:17:33;;;;;;;10.68;7.43;;;;;;;;;;5060884;28;20219;-87
2021/10/11 07:19:59;;;;;;;13.30;8.55;;;;;;;;;;5062999;28;20188;-87
2021/10/11 07:22:25;;;;;;;11.55;7.40;;;;;;;;;;5062972;28;20252;-90
2021/10/11 07:24:51;;;;;;;13.90;6.70;;;;;;;;;;5055307;28;20455;-90
2021/10/11 07:27:17;;;;;;;11.17;5.93;;;;;;;;;;5057716;28;20194;-87
2021/10/11 07:29:43;;;;;;;13.07;6.47;;;;;;;;;;5062174;28;20463;-90
2021/10/11 07:32:10;;;;;;;8.23;5.85;;;;;;;;;;5061683;28;20263;-89
2021/10/11 07:34:36;;;;;;;10.63;6.60;;;;;;;;;;5060140;28;20181;-91
2021/10/11 07:37:03;;;;;;;7.68;5.55;;;;;;;;;;5061454;28;20188;-89
2021/10/11 07:39:29;;;;;;;10.25;5.53;;;;;;;;;;5056265;28;20188;-92
2021/10/11 07:41:55;;;;;;;6.97;5.57;;;;;;;;;;5071240;28;20186;-91
2021/10/11 07:44:21;;;;;;;10.10;5.40;;;;;;;;;;5074754;28;20223;-88
2021/10/11 07:46:52;;;;;;;12.90;4.93;;;;;;;;;;5065172;28;20411;-81
2021/10/11 07:49:18;;;;;;;6.80;4.55;;;;;;;;;;5059120;28;20628;-92
2021/10/11 07:51:44;;;;;;;6.23;5.00;;;;;;;;;;5058880;28;20186;-90
2021/10/11 07:54:10;;;;;;;9.47;4.60;;;;;;;;;;5060460;28;20439;-92
2021/10/11 07:56:37;;;;;;;4.85;3.85;;;;;;;;;;5057943;28;20733;-89
2021/10/11 07:59:03;;;;;;;8.82;4.78;;;;;;;;;;5063298;28;20176;-92
2021/10/11 08:01:29;;;;;;;8.75;4.28;;;;;;;;;;5060834;28;20204;-93
2021/10/11 08:03:55;;;;;;;11.20;4.75;;;;;;;;;;5062999;28;20190;-88
2021/10/11 08:06:21;;;;;;;7.15;3.60;;;;;;;;;;5060886;28;20177;-89
2021/10/11 08:08:47;;;;;;;7.97;3.90;;;;;;;;;;5058167;28;20182;-91
2021/10/11 08:11:13;;;;;;;7.50;3.80;;;;;;;;;;5059073;28;20251;-91
2021/10/11 08:13:39;;;;;;;5.75;2.70;;;;;;;;;;5058761;28;20431;-86
2021/10/11 08:16:06;;;;;;;7.32;3.03;;;;;;;;;;5055531;28;20216;-90
2021/10/11 08:18:32;;;;;;;8.38;3.42;;;;;;;;;;5063676;28;20177;-89
2021/10/11 08:20:58;;;;;;;7.95;3.63;;;;;;;;;;5062106;28;20192;-90
2021/10/11 08:23:24;;;;;;;10.63;3.50;;;;;;;;;;5072123;28;20181;-90
2021/10/11 08:25:50;;;;;;;4.38;3.10;;;;;;;;;;5060929;28;20431;-91
2021/10/11 08:28:16;;;;;;;6.07;2.88;;;;;;;;;;5055320;28;20439;-90
2021/10/11 08:30:43;;;;;;;6.70;3.35;;;;;;;;;;5060711;28;20239;-90
2021/10/11 08:33:09;;;;;;;6.03;2.38;;;;;;;;;;5059273;28;20234;-89
2021/10/11 08:35:35;;;;;;;7.72;2.78;;;;;;;;;;5060867;28;20183;-93
2021/10/11 08:38:01;;;;;;;4.90;2.75;;;;;;;;;;5063054;28;20241;-89
2021/10/11 08:40:27;;;;;;;4.87;3.17;;;;;;;;;;5061709;28;20193;-91
2021/10/11 08:42:53;;;;;;;9.30;3.53;;;;;;;;;;5058793;28;20439;-91
2021/10/11 08:45:19;;;;;;;5.57;3.53;;;;;;;;;;5058749;28;20225;-86
2021/10/11 08:47:46;;;;;;;6.80;3.20;;;;;;;;;;5059717;28;20475;-90
2021/10/11 08:50:15;;;;;;;6.43;2.97;;;;;;;;;;5056255;28;20470;-88
2021/10/11 08:52:41;;;;;;;5.45;4.30;;;;;;;;;;5060652;28;20170;-90
2021/10/11 08:55:08;;;;;;;9.63;3.38;;;;;;;;;;5059379;28;20240;-90
2021/10/11 08:57:34;;;;;;;6.55;3.30;;;;;;;;;;5058816;28;20178;-85
2021/10/11 09:00:26;;;;;;;5.30;3.33;;;;;;;;;;5060590;28;20189;-90
2021/10/11 09:02:56;;;;;;;3.80;2.70;;;;;;;;;;5054785;28;20204;-89
2021/10/11 09:05:23;;;;;;;7.55;2.85;;;;;;;;;;5057188;28;20187;-89
2021/10/11 09:07:57;;;;;;;5.05;3.17;;;;;;;;;;5056157;28;20173;-92
2021/10/11 09:10:23;;;;;;;5.90;3.22;;;;;;;;;;5059855;28;20206;-91
2021/10/11 09:12:49;;;;;;;3.80;2.70;;;;;;;;;;5057695;28;20212;-90
2021/10/11 09:15:15;;;;;;;8.23;2.33;;;;;;;;;;5057958;28;20185;-90
2021/10/11 09:17:43;;;;;;;9.40;4.07;;;;;;;;;;5059655;28;20528;-92
2021/10/11 09:20:12;;;;;;;5.28;2.80;;;;;;;;;;5056625;28;20241;-91
2021/10/11 09:22:39;;;;;;;6.32;2.40;;;;;;;;;;5056686;28;20194;-89
2021/10/11 09:25:06;;;;;;;6.05;2.20;;;;;;;;;;5059680;28;20208;-90
2021/10/11 09:27:46;;;;;;;4.55;3.30;;;;;;;;;;5060022;28;20187;-90
2021/10/11 09:30:13;;;;;;;4.93;2.50;;;;;;;;;;5055003;28;20219;-85
2021/10/11 09:32:39;;;;;;;5.80;2.05;;;;;;;;;;5060647;28;20196;-87
2021/10/11 09:35:12;;;;;;;4.80;2.20;;;;;;;;;;5057501;28;20204;-87
2021/10/11 09:37:38;;;;;;;4.72;2.13;;;;;;;;;;5057595;28;20183;-90
2021/10/11 09:40:05;;;;;;;5.10;2.78;;;;;;;;;;5062268;28;20187;-88
2021/10/11 09:42:31;;;;;;;5.82;2.47;;;;;;;;;;5060443;28;20185;-89
2021/10/11 09:44:57;;;;;;;2.83;1.50;;;;;;;;;;5058234;28;20239;-89
2021/10/11 09:47:41;;;;;;;7.47;2.15;;;;;;;;;;5075798;28;20282;-88
2021/10/11 09:50:08;;;;;;;4.95;2.00;;;;;;;;;;5060840;28;20210;-91
2021/10/11 09:52:35;;;;;;;7.13;2.70;;;;;;;;;;5056960;28;20172;-87
2021/10/11 09:55:01;;;;;;;8.70;2.92;;;;;;;;;;5055195;28;20226;-90
2021/10/11 09:57:28;;;;;;;5.03;3.42;;;;;;;;;;5056221;28;20677;-86
2021/10/11 09:59:54;;;;;;;5.10;2.80;;;;;;;;;;5057393;28;20266;-91
2021/10/11 10:02:25;;;;;;;4.32;1.95;;;;;;;;;;5060786;28;20214;-82
2021/10/11 10:04:53;;;;;;;4.95;1.95;;;;;;;;;;5060890;28;20184;-86
2021/10/11 10:07:19;;;;;;;6.18;2.25;;;;;;;;;;5057109;28;20683;-87
2021/10/11 10:09:47;;;;;;;3.08;1.88;;;;;;;;;;5058706;28;20212;-92
2021/10/11 10:12:14;;;;;;;8.27;2.35;;;;;;;;;;5058677;28;20204;-91
2021/10/11 10:14:40;;;;;;;3.05;2.15;;;;;;;;;;5059537;28;20188;-89
2021/10/11 10:17:06;;;;;;;4.30;2.00;;;;;;;;;;5074063;28;20191;-86
2021/10/11 10:19:33;;;;;;;6.28;2.38;;;;;;;;;;5059722;28;20503;-89
2021/10/11 10:22:01;;;;;;;5.10;2.13;;;;;;;;;;5059444;28;20188;-90
2021/10/11 10:24:29;;;;;;;7.38;3.25;;;;;;;;;;5059693;28;20195;-88
2021/10/11 10:27:06;;;;;;;7.63;2.80;;;;;;;;;;5060488;28;20185;-91
2021/10/11 10:29:48;;;;;;;3.47;2.28;;;;;;;;;;5072932;28;20225;-88
2021/10/11 10:32:15;;;;;;;2.83;2.20;;;;;;;;;;5056864;28;20222;-90
2021/10/11 10:34:41;;;;;;;6.75;2.40;;;;;;;;;;5053002;28;20174;-90
2021/10/11 10:37:11;;;;;;;4.18;2.53;;;;;;;;;;5051877;28;20186;-89
2021/10/11 10:39:48;;;;;;;2.05;1.85;;;;;;;;;;5064735;28;20213;-87
2021/10/11 10:42:21;;;;;;;4.00;1.92;;;;;;;;;;5058848;28;20192;-88
2021/10/11 10:44:47;;;;;;;2.85;1.90;;;;;;;;;;5059938;28;20212;-88
2021/10/11 10:47:13;;;;;;;3.85;2.00;;;;;;;;;;5055830;28;20189;-87
2021/10/11 10:49:47;;;;;;;5.22;2.40;;;;;;;;;;5050606;28;20209;-85
2021/10/11 10:52:18;;;;;;;5.53;2.35;;;;;;;;;;5054914;28;20173;-85
2021/10/11 10:54:46;;;;;;;3.60;2.13;;;;;;;;;;5062272;28;20180;-82
2021/10/11 10:57:14;;;;;;;7.25;2.38;;;;;;;;;;5062644;28;20210;-90
2021/10/11 10:59:40;;;;;;;4.68;2.08;;;;;;;;;;5055480;28;20182;-90
2021/10/11 11:02:10;;;;;;;8.20;2.53;;;;;;;;;;5060672;28;20180;-89
2021/10/11 11:04:37;;;;;;;5.70;2.85;;;;;;;;;;5069879;28;20268;-93
2021/10/11 11:07:04;;;;;;;2.97;2.00;;;;;;;;;;5060073;28;20272;-90
2021/10/11 11:09:44;;;;;;;4.35;2.20;;;;;;;;;;5059694;28;20472;-90
2021/10/11 11:12:14;;;;;;;4.22;2.20;;;;;;;;;;5059493;28;20250;-85
2021/10/11 11:14:45;;;;;;;5.03;2.75;;;;;;;;;;5078279;28;20213;-82
2021/10/11 11:17:14;;;;;;;5.57;2.40;;;;;;;;;;5057664;28;20173;-85
2021/10/11 11:19:42;;;;;;;4.50;2.03;;;;;;;;;;5062217;28;20165;-89
2021/10/11 11:22:08;;;;;;;2.97;1.70;;;;;;;;;;5063173;28;20619;-88
2021/10/11 11:24:34;;;;;;;2.90;1.83;;;;;;;;;;5056803;28;20185;-90
2021/10/11 11:27:02;;;;;;;3.35;2.38;;;;;;;;;;5060456;28;20189;-90
2021/10/11 11:29:28;;;;;;;3.95;2.05;;;;;;;;;;5062943;28;20201;-82
2021/10/11 11:31:54;;;;;;;10.10;2.13;;;;;;;;;;5062150;28;20201;-87
2021/10/11 11:34:21;;;;;;;6.13;2.35;;;;;;;;;;5061711;28;20180;-88
2021/10/11 11:36:51;;;;;;;3.17;1.85;;;;;;;;;;5059604;28;20584;-88
2021/10/11 11:39:18;;;;;;;3.80;1.88;;;;;;;;;;5059065;28;20190;-87
2021/10/11 11:41:54;;;;;;;2.28;1.60;;;;;;;;;;5060441;28;20185;-87
2021/10/11 11:44:24;;;;;;;4.70;2.10;;;;;;;;;;5057316;28;20219;-87
2021/10/11 11:47:06;;;;;;;5.03;1.50;;;;;;;;;;5078160;28;20677;-87
2021/10/11 11:49:34;;;;;;;5.05;2.05;;;;;;;;;;5063296;28;20204;-88
2021/10/11 11:52:05;;;;;;;5.07;2.08;;;;;;;;;;5057468;28;20174;-91
2021/10/11 11:54:31;;;;;;;4.25;1.50;;;;;;;;;;5058482;28;20189;-88
2021/10/11 11:56:57;;;;;;;6.80;2.00;;;;;;;;;;5074231;28;20190;-88
2021/10/11 11:59:23;;;;;;;5.65;2.25;;;;;;;;;;5073955;28;20519;-89
2021/10/11 12:01:49;;;;;;;2.75;1.50;;;;;;;;;;5060121;28;20227;-84
2021/10/11 12:04:15;;;;;;;5.28;2.45;;;;;;;;;;5061349;28;20517;-85
2021/10/11 12:06:42;;;;;;;4.07;1.92;;;;;;;;;;5064301;28;20184;-90
2021/10/11 12:09:10;;;;;;;2.80;2.05;;;;;;;;;;5060506;28;20185;-90
2021/10/11 12:11:37;;;;;;;6.10;2.13;;;;;;;;;;5074467;28;20208;-90
2021/10/11 12:14:03;;;;;;;2.78;1.95;;;;;;;;;;5057821;28;20184;-91
2021/10/11 12:16:31;;;;;;;3.13;2.00;;;;;;;;;;5058351;28;20177;-88
2021/10/11 12:18:59;;;;;;;5.10;2.38;;;;;;;;;;5061413;28;20669;-87
2021/10/11 12:21:30;;;;;;;3.55;2.22;;;;;;;;;;5058180;28;20170;-87
2021/10/11 12:24:16;;;;;;;5.97;2.03;;;;;;;;;;5061865;28;20216;-88
2021/10/11 12:26:46;;;;;;;2.90;1.60;;;;;;;;;;5059823;28;20201;-87
2021/10/11 12:29:13;;;;;;;3.00;1.67;;;;;;;;;;5057621;28;20165;-87
2021/10/11 12:31:39;;;;;;;4.10;1.80;;;;;;;;;;5063318;28;20236;-85
2021/10/11 12:34:08;;;;;;;3.05;1.92;;;;;;;;;;5062273;28;20564;-88
2021/10/11 12:36:45;;;;;;;5.50;2.28;;;;;;;;;;5056585;28;20669;-87
2021/10/11 12:39:11;;;;;;;3.38;2.22;;;;;;;;;;5052511;28;20180;-86
2021/10/11 12:41:37;;;;;;;6.18;2.40;;;;;;;;;;5073280;28;20188;-90
2021/10/11 12:44:05;;;;;;;5.85;2.00;;;;;;;;;;5057254;28;20223;-87
2021/10/11 12:46:40;;;;;;;7.05;2.72;;;;;;;;;;5058471;28;20170;-88
2021/10/11 12:49:06;;;;;;;8.18;1.70;;;;;;;;;;5055274;28;20180;-88
2021/10/11 12:51:33;;;;;;;3.53;2.17;;;;;;;;;;5057073;28;20174;-89
2021/10/11 12:54:23;;;;;;;4.38;1.77;;;;;;;;;;5060691;28;20514;-85
2021/10/11 12:56:50;;;;;;;2.95;2.05;;;;;;;;;;5058570;28;20177;-89
2021/10/11 12:59:17;;;;;;;8.25;2.38;;;;;;;;;;5057485;28;20180;-89
2021/10/11 13:01:43;;;;;;;4.25;2.03;;;;;;;;;;5063222;28;20173;-88
2021/10/11 13:04:09;;;;;;;3.80;1.80;;;;;;;;;;5056436;28;20608;-87
2021/10/11 13:06:36;;;;;;;5.35;1.80;;;;;;;;;;5056716;28;20436;-87
2021/10/11 13:09:04;;;;;;;5.70;2.25;;;;;;;;;;5050436;28;20174;-90
2021/10/11 13:11:30;;;;;;;3.67;1.95;;;;;;;;;;5070817;28;20186;-89
2021/10/11 13:13:56;;;;;;;5.22;2.22;;;;;;;;;;5056481;28;20176;-92
2021/10/11 13:16:23;;;;;;;5.30;1.80;;;;;;;;;;5072324;28;20177;-89
2021/10/11 13:18:49;;;;;;;5.65;2.50;;;;;;;;;;5058597;28;20170;-87
2021/10/11 13:21:15;;;;;;;4.07;2.00;;;;;;;;;;5058839;28;20256;-89
2021/10/11 13:23:42;;;;;;;3.03;1.70;;;;;;;;;;5073479;28;20253;-92
2021/10/11 13:26:09;;;;;;;3.75;2.00;;;;;;;;;;5057487;28;20196;-91
2021/10/11 13:28:40;;;;;;;5.35;2.20;;;;;;;;;;5072784;28;20192;-89
2021/10/11 14:27:53;;;;;;;8.48;2.78;;;;;;;;;;5058229;28;20206;-88
2021/10/11 14:33:38;;;;;;;6.18;2.65;;;;;;;;;;5063555;28;20279;-89
2021/10/11 16:00:31;;;;;;;2.53;2.08;;;;;;;;;;5058932;28;20200;-87
2021/10/11 16:03:06;;;;;;;4.47;2.20;;;;;;;;;;5062009;28;20181;-88
2021/10/11 16:05:32;;;;;;;6.57;3.08;;;;;;;;;;5057455;28;20188;-88
2021/10/11 16:07:58;;;;;;;4.87;2.00;;;;;;;;;;5058153;28;20554;-87
2021/10/11 16:10:25;;;;;;;3.47;1.83;;;;;;;;;;5058339;28;20462;-86
2021/10/11 16:12:51;;;;;;;7.05;2.45;;;;;;;;;;5060410;28;20451;-89
2021/10/11 16:15:17;;;;;;;2.63;2.13;;;;;;;;;;5060723;28;20698;-89
2021/10/11 16:17:43;;;;;;;5.15;2.20;;;;;;;;;;5074553;28;20193;-91
2021/10/11 16:20:12;;;;;;;2.80;2.28;;;;;;;;;;5063073;28;20181;-91
2021/10/11 16:22:39;;;;;;;6.43;2.60;;;;;;;;;;5074704;28;20169;-90
2021/10/11 16:25:06;;;;;;;7.43;3.30;;;;;;;;;;5061439;28;20191;-90
2021/10/11 16:27:32;;;;;;;6.88;2.22;;;;;;;;;;5057556;28;20257;-88
2021/10/11 16:29:58;;;;;;;5.78;2.83;;;;;;;;;;5061914;28;20208;-91
2021/10/11 16:32:24;;;;;;;5.93;2.80;;;;;;;;;;5072815;28;20196;-89
2021/10/11 16:34:50;;;;;;;4.45;2.00;;;;;;;;;;5059909;28;20196;-92
2021/10/11 16:37:18;;;;;;;5.15;2.63;;;;;;;;;;5055075;28;20223;-91
2021/10/11 16:39:44;;;;;;;5.68;3.05;;;;;;;;;;5055898;28;20196;-90
2021/10/11 16:42:10;;;;;;;2.10;1.90;;;;;;;;;;5058952;28;20193;-88
2021/10/11 16:44:36;;;;;;;3.85;2.55;;;;;;;;;;5074572;28;20493;-89
2021/10/11 16:47:02;;;;;;;5.03;2.97;;;;;;;;;;5059658;28;20188;-87
2021/10/11 16:49:28;;;;;;;6.40;3.17;;;;;;;;;;5058349;28;21025;-90
2021/10/11 16:51:56;;;;;;;9.15;2.90;;;;;;;;;;5060985;28;20234;-90
2021/10/11 16:54:22;;;;;;;4.65;2.70;;;;;;;;;;5062422;28;20252;-89